Time;durP1;ratioP1;P1;durP2;ratioP2;P2;SDS_P1;SDS_P2;PMS_P1;PMS_P2;Temp;Humidity;BMP_temperature;BMP_pressure;BME280_temperature;BME280_humidity;BME280_pressure;Samples;Min_cycle;Max_cycle;Signal;HPM_P1;HPM_P2
2022/07/17 00:04:14;;;;;;;3.97;1.42;;;;;;;20.62;41.41;101592.06;9900327;30;20209;-84
2022/07/17 00:09:17;;;;;;;4.22;0.95;;;;;;;20.57;41.91;101595.09;9900248;30;20198;-83
2022/07/17 00:14:19;;;;;;;3.97;1.13;;;;;;;20.39;42.47;101592.25;9914763;30;20508;-81
2022/07/17 00:19:21;;;;;;;2.10;1.20;;;;;;;20.21;42.60;101590.66;9884843;30;20226;-83
2022/07/17 00:24:24;;;;;;;3.63;0.98;;;;;;;20.20;43.14;101582.47;9884546;30;20595;-81
2022/07/17 00:29:26;;;;;;;2.70;1.00;;;;;;;20.20;43.36;101582.47;9884554;29;20214;-83
2022/07/17 00:34:29;;;;;;;1.98;1.27;;;;;;;20.11;43.15;101585.28;9899180;30;20205;-84
2022/07/17 00:39:31;;;;;;;2.63;1.20;;;;;;;20.03;43.27;101589.00;9899068;30;20241;-82
2022/07/17 00:44:33;;;;;;;5.13;1.60;;;;;;;19.94;43.58;101585.34;9898919;30;20205;-82
2022/07/17 00:49:36;;;;;;;3.67;1.88;;;;;;;19.93;43.25;101592.19;9898547;30;20193;-85
2022/07/17 00:54:40;;;;;;;6.93;1.80;;;;;;;19.80;43.36;101594.84;9912472;29;20194;-82
2022/07/17 00:59:42;;;;;;;2.97;1.27;;;;;;;19.63;43.55;101591.13;9939675;29;20208;-82
2022/07/17 01:04:44;;;;;;;3.28;1.52;;;;;;;19.77;43.16;101592.69;9914604;29;20480;-82
2022/07/17 01:09:47;;;;;;;5.27;1.70;;;;;;;19.75;43.06;101588.47;9898265;30;20473;-82
2022/07/17 01:14:50;;;;;;;5.80;1.83;;;;;;;19.56;43.62;101600.16;9898026;30;20251;-81
2022/07/17 01:19:53;;;;;;;4.30;1.60;;;;;;;19.61;43.65;101591.47;9897632;30;20213;-82
2022/07/17 01:24:55;;;;;;;3.60;1.70;;;;;;;19.46;44.52;101598.47;9912562;30;20465;-82
2022/07/17 01:29:58;;;;;;;6.65;1.50;;;;;;;19.52;44.04;101596.31;9912134;29;20229;-82
2022/07/17 01:35:01;;;;;;;6.15;1.50;;;;;;;19.63;43.57;101594.81;9881326;30;20213;-82
2022/07/17 01:40:04;;;;;;;6.53;1.33;;;;;;;19.31;44.43;101595.28;9911899;29;20569;-82
2022/07/17 01:45:07;;;;;;;4.72;1.63;;;;;;;19.13;44.45;101593.56;9897613;29;20205;-82
2022/07/17 01:50:11;;;;;;;4.77;1.10;;;;;;;19.02;45.34;101593.03;9897693;29;20193;-81
2022/07/17 01:55:14;;;;;;;3.10;1.17;;;;;;;19.31;44.16;101589.59;9909555;29;20238;-81
2022/07/17 02:00:18;;;;;;;6.18;2.00;;;;;;;19.03;45.14;101586.19;9910734;29;20768;-82
2022/07/17 02:05:20;;;;;;;6.57;1.77;;;;;;;19.26;44.50;101586.91;9895647;30;20201;-83
2022/07/17 02:10:23;;;;;;;3.83;1.73;;;;;;;19.01;45.05;101574.34;9895083;30;20227;-84
2022/07/17 02:15:25;;;;;;;6.13;1.60;;;;;;;19.06;45.04;101582.72;9895783;30;20565;-83
2022/07/17 02:20:28;;;;;;;4.35;1.52;;;;;;;18.75;45.85;101577.06;9925701;29;20217;-82
2022/07/17 02:25:30;;;;;;;5.45;1.77;;;;;;;19.18;44.68;101579.25;9880839;30;20209;-80
2022/07/17 02:30:33;;;;;;;5.00;1.63;;;;;;;19.09;44.75;101576.38;9910294;29;20306;-82
2022/07/17 02:35:35;;;;;;;4.78;1.13;;;;;;;19.08;45.06;101580.34;9895899;30;20223;-81
2022/07/17 02:40:37;;;;;;;2.90;1.17;;;;;;;18.95;45.57;101584.97;9910132;29;20221;-83
2022/07/17 02:45:40;;;;;;;4.00;1.40;;;;;;;18.88;45.15;101578.13;9901278;29;20193;-82
2022/07/17 02:50:42;;;;;;;2.67;1.23;;;;;;;18.37;46.91;101583.22;9922125;30;20546;-81
2022/07/17 02:55:44;;;;;;;4.70;1.50;;;;;;;18.64;45.80;101578.53;9892813;30;20205;-81
2022/07/17 03:00:46;;;;;;;3.30;1.70;;;;;;;18.52;46.23;101589.63;9907575;30;20833;-82
2022/07/17 03:05:49;;;;;;;4.30;1.48;;;;;;;18.54;46.42;101593.81;9929913;29;20205;-82
2022/07/17 03:10:51;;;;;;;6.70;1.70;;;;;;;18.74;45.61;101592.38;9907324;30;20251;-82
2022/07/17 03:15:54;;;;;;;4.38;1.48;;;;;;;18.64;46.00;101587.03;9892450;30;20757;-81
2022/07/17 03:20:57;;;;;;;4.28;1.70;;;;;;;18.46;46.69;101585.25;9921556;30;20281;-82
2022/07/17 03:25:59;;;;;;;3.60;1.50;;;;;;;18.44;46.37;101581.91;9907180;30;20197;-81
2022/07/17 03:31:01;;;;;;;6.57;1.60;;;;;;;18.57;46.13;101595.13;9921675;29;20221;-82
2022/07/17 03:36:04;;;;;;;6.00;1.73;;;;;;;18.43;46.89;101597.22;9921667;30;20230;-82
2022/07/17 03:41:06;;;;;;;3.95;1.52;;;;;;;18.64;45.96;101604.84;9892289;30;20262;-82
2022/07/17 03:46:08;;;;;;;4.23;1.47;;;;;;;18.51;46.38;101621.94;9921448;29;20205;-82
2022/07/17 03:51:11;;;;;;;6.00;1.87;;;;;;;18.19;47.31;101628.72;9906837;30;20182;-81
2022/07/17 03:56:14;;;;;;;4.73;1.47;;;;;;;18.36;47.15;101615.53;9934072;29;20201;-81
2022/07/17 04:01:16;;;;;;;3.63;2.10;;;;;;;18.09;48.08;101607.16;9885566;30;20272;-81
2022/07/17 04:06:18;;;;;;;4.97;2.07;;;;;;;18.10;48.19;101606.00;9886155;30;20205;-82
2022/07/17 04:11:21;;;;;;;4.13;1.77;;;;;;;18.20;47.78;101610.56;9900017;30;20230;-81
2022/07/17 04:16:24;;;;;;;5.47;1.60;;;;;;;18.23;47.59;101613.59;9900160;30;20207;-81
2022/07/17 04:21:26;;;;;;;6.43;2.00;;;;;;;17.28;49.49;101623.19;9914730;30;20224;-81
2022/07/17 04:26:29;;;;;;;6.10;2.35;;;;;;;16.40;53.96;101618.72;9927506;29;20210;-82
2022/07/17 04:31:31;;;;;;;4.33;2.30;;;;;;;16.46;53.83;101621.16;9900217;29;20229;-81
2022/07/17 04:36:35;;;;;;;4.73;2.00;;;;;;;18.39;47.81;101602.72;9913035;29;20217;-81
2022/07/17 04:41:38;;;;;;;5.17;1.70;;;;;;;18.21;47.26;101601.75;9919439;29;20301;-81
2022/07/17 04:46:40;;;;;;;3.85;1.50;;;;;;;18.28;47.30;101613.47;9910215;29;20209;-81
2022/07/17 04:51:43;;;;;;;3.65;1.55;;;;;;;18.53;46.16;101603.47;9952631;29;20193;-81
2022/07/17 04:56:45;;;;;;;5.05;2.15;;;;;;;18.56;45.88;101608.47;9938910;29;20205;-82
2022/07/17 05:01:47;;;;;;;3.30;1.53;;;;;;;18.62;45.10;101607.16;9916382;29;20643;-82
2022/07/17 05:06:50;;;;;;;2.30;1.37;;;;;;;18.64;45.21;101606.84;9913083;29;20607;-82
2022/07/17 05:11:53;;;;;;;3.05;1.55;;;;;;;18.51;46.24;101628.44;9898050;30;20197;-81
2022/07/17 05:16:55;;;;;;;3.60;1.50;;;;;;;18.42;47.06;101638.06;9898051;30;20258;-82
2022/07/17 05:21:57;;;;;;;6.23;1.70;;;;;;;18.31;47.66;101645.97;9880363;29;20229;-83
2022/07/17 05:27:01;;;;;;;5.47;1.77;;;;;;;18.37;47.10;101645.53;9915116;29;20671;-81
2022/07/17 05:32:04;;;;;;;3.17;1.60;;;;;;;18.80;46.37;101647.78;9883977;30;20539;-82
2022/07/17 05:37:06;;;;;;;4.10;1.50;;;;;;;19.33;44.82;101661.03;9912064;29;20227;-81
2022/07/17 05:42:08;;;;;;;4.70;1.90;;;;;;;19.49;44.71;101645.19;9912243;29;20302;-82
2022/07/17 05:47:10;;;;;;;4.67;1.63;;;;;;;19.20;46.26;101631.59;9908510;29;20197;-83
2022/07/17 05:52:13;;;;;;;2.53;1.45;;;;;;;19.44;45.83;101634.84;9896365;29;20243;-82
2022/07/17 05:57:15;;;;;;;2.63;1.48;;;;;;;19.53;44.93;101620.66;9892567;29;20201;-82
2022/07/17 06:02:18;;;;;;;1.77;1.00;;;;;;;19.44;44.22;101623.50;9911660;29;20322;-81
2022/07/17 06:07:20;;;;;;;4.45;1.27;;;;;;;19.89;43.24;101630.91;9887740;29;20238;-81
2022/07/17 06:12:22;;;;;;;5.45;0.98;;;;;;;19.94;43.15;101623.06;9889128;29;20259;-82
2022/07/17 06:17:25;;;;;;;3.17;1.00;;;;;;;20.08;42.56;101625.75;9918950;29;20229;-81
2022/07/17 06:22:27;;;;;;;3.60;0.90;;;;;;;20.29;41.97;101626.72;9911670;29;20297;-82
2022/07/17 06:27:30;;;;;;;3.33;1.02;;;;;;;20.61;40.70;101631.03;9891354;30;20205;-82
2022/07/17 06:32:32;;;;;;;4.50;1.10;;;;;;;20.57;41.63;101646.25;9929468;29;20232;-84
2022/07/17 06:37:36;;;;;;;2.85;0.82;;;;;;;20.81;40.50;101627.44;9915123;29;20278;-83
2022/07/17 06:42:38;;;;;;;6.40;1.20;;;;;;;21.06;39.62;101628.50;9896442;29;20321;-81
2022/07/17 06:47:41;;;;;;;7.78;1.23;;;;;;;20.98;40.22;101632.22;9904822;29;20741;-80
2022/07/17 06:52:43;;;;;;;3.97;0.60;;;;;;;21.18;38.67;101625.75;9907938;29;20317;-80
2022/07/17 06:57:48;;;;;;;2.47;0.52;;;;;;;21.01;39.69;101616.50;9914267;29;20205;-80
2022/07/17 07:02:50;;;;;;;5.95;1.58;;;;;;;21.47;39.01;101632.66;9909317;29;20308;-83
2022/07/17 07:07:53;;;;;;;3.88;0.80;;;;;;;21.77;38.34;101648.53;9924564;29;20258;-83
2022/07/17 07:12:56;;;;;;;3.78;0.98;;;;;;;21.42;38.56;101647.06;9899877;29;20210;-83
2022/07/17 07:17:58;;;;;;;4.72;1.10;;;;;;;21.36;39.16;101655.00;9912899;29;20205;-86
2022/07/17 07:23:00;;;;;;;2.85;0.85;;;;;;;21.79;39.03;101629.09;9925152;29;20221;-84
2022/07/17 07:28:08;;;;;;;4.95;0.80;;;;;;;22.44;38.17;101616.13;9910795;29;20205;-85
2022/07/17 07:33:11;;;;;;;6.30;1.40;;;;;;;22.58;37.75;101602.34;9895056;29;21688;-85
2022/07/17 07:38:14;;;;;;;4.20;1.10;;;;;;;22.63;36.32;101602.16;9885747;29;20217;-86
2022/07/17 07:43:17;;;;;;;3.22;0.65;;;;;;;23.10;36.02;101593.16;9901192;29;20295;-86
2022/07/17 07:48:19;;;;;;;3.13;0.80;;;;;;;23.03;35.16;101603.50;9921523;29;20553;-85
2022/07/17 07:53:22;;;;;;;2.30;0.70;;;;;;;22.05;38.29;101626.06;9915575;29;20198;-83
2022/07/17 07:58:24;;;;;;;5.57;0.70;;;;;;;22.03;37.55;101627.56;9901196;29;20902;-84
2022/07/17 08:03:27;;;;;;;3.65;0.65;;;;;;;21.63;38.47;101630.88;9884307;29;20643;-84
2022/07/17 08:08:29;;;;;;;4.93;0.80;;;;;;;22.34;36.93;101627.94;9914208;29;20201;-84
2022/07/17 08:13:37;;;;;;;4.75;0.60;;;;;;;23.05;35.38;101630.50;9901776;29;20222;-83
2022/07/17 08:18:39;;;;;;;2.92;0.82;;;;;;;23.21;36.37;101640.03;9921544;29;20660;-85
2022/07/17 08:23:42;;;;;;;3.60;0.80;;;;;;;22.25;36.89;101658.53;9913277;29;20225;-83
2022/07/17 08:28:44;;;;;;;5.18;0.70;;;;;;;23.09;35.06;101648.59;9899460;29;20243;-83
2022/07/17 08:33:47;;;;;;;5.00;0.82;;;;;;;23.16;34.28;101643.09;9892855;29;20233;-82
2022/07/17 08:38:49;;;;;;;2.08;0.60;;;;;;;23.38;34.36;101649.53;9897364;29;20263;-84
2022/07/17 08:43:54;;;;;;;4.20;0.55;;;;;;;23.89;33.69;101659.34;9901224;29;20252;-84
2022/07/17 08:49:00;;;;;;;7.63;0.80;;;;;;;23.61;33.24;101654.44;9900282;29;20205;-83
2022/07/17 08:54:03;;;;;;;5.88;0.95;;;;;;;22.58;35.65;101664.22;9896863;29;20239;-83
2022/07/17 08:59:06;;;;;;;2.50;0.77;;;;;;;23.93;34.10;101666.88;9897904;30;20274;-83
2022/07/17 09:04:09;;;;;;;4.97;1.10;;;;;;;24.38;31.88;101649.47;9912858;29;20626;-84
2022/07/17 09:09:14;;;;;;;4.13;0.50;;;;;;;24.62;32.63;101639.94;9875224;29;20217;-83
2022/07/17 09:14:17;;;;;;;2.78;0.70;;;;;;;24.64;32.22;101639.59;9914609;29;20197;-82
2022/07/17 09:19:46;;;;;;;3.85;0.60;;;;;;;22.63;35.02;101653.47;9912688;30;20254;-82
2022/07/17 09:24:51;;;;;;;3.97;0.60;;;;;;;24.22;32.19;101639.16;9909941;30;20469;-83
2022/07/17 09:30:04;;;;;;;4.85;0.88;;;;;;;24.77;31.34;101634.63;9888993;29;20318;-84
2022/07/17 09:35:09;;;;;;;3.38;0.70;;;;;;;23.10;33.92;101630.25;9907263;29;20646;-81
2022/07/17 09:41:09;;;;;;;1.77;0.63;;;;;;;24.38;32.10;101628.63;9914374;29;20197;-80
2022/07/17 09:45:36;;;;;;;4.32;0.98;;;;;;;23.23;33.97;101626.19;9893367;29;20232;-83
2022/07/17 09:50:39;;;;;;;2.53;0.70;;;;;;;22.69;33.91;101633.31;9874661;29;20233;-83
2022/07/17 09:55:42;;;;;;;2.72;0.77;;;;;;;23.34;33.65;101626.63;9891911;29;20233;-83
2022/07/17 10:00:50;;;;;;;3.10;0.75;;;;;;;23.52;31.87;101624.31;9868219;29;20262;-87
2022/07/17 10:05:52;;;;;;;4.68;0.77;;;;;;;23.10;33.67;101626.56;9885011;29;20244;-83
2022/07/17 10:10:55;;;;;;;2.08;0.55;;;;;;;23.63;31.92;101622.63;9872787;29;20394;-84
2022/07/17 10:15:58;;;;;;;6.38;1.00;;;;;;;24.48;33.18;101628.06;9899394;29;20233;-83
2022/07/17 10:21:11;;;;;;;5.85;0.73;;;;;;;24.72;31.77;101635.72;9874056;30;20237;-82
2022/07/17 10:26:14;;;;;;;5.63;0.75;;;;;;;25.84;29.45;101635.25;9884818;29;20692;-82
2022/07/17 10:31:27;;;;;;;2.35;0.60;;;;;;;26.29;27.73;101631.75;9863969;29;20668;-83
2022/07/17 10:36:40;;;;;;;2.80;0.70;;;;;;;24.97;30.95;101636.38;9884231;29;20387;-83
2022/07/17 10:41:55;;;;;;;4.95;0.90;;;;;;;23.57;32.09;101642.03;9863935;29;20614;-82
2022/07/17 10:46:58;;;;;;;2.78;0.80;;;;;;;24.33;29.48;101641.13;9861507;29;20236;-82
2022/07/17 10:52:00;;;;;;;3.05;0.80;;;;;;;24.77;27.52;101626.88;9869422;29;20229;-83
2022/07/17 10:57:03;;;;;;;1.50;0.40;;;;;;;25.23;27.97;101628.09;9865125;30;20364;-83
2022/07/17 11:02:07;;;;;;;5.80;0.80;;;;;;;24.70;29.67;101626.66;9868737;29;20346;-84
2022/07/17 11:07:10;;;;;;;6.43;0.60;;;;;;;25.22;29.32;101620.69;9877188;29;20282;-84
2022/07/17 11:12:12;;;;;;;2.83;0.70;;;;;;;25.91;27.29;101618.25;9867918;29;20255;-84
2022/07/17 11:17:18;;;;;;;3.35;1.00;;;;;;;25.67;25.45;101611.56;9859119;29;20229;-83
2022/07/17 11:22:24;;;;;;;2.47;0.88;;;;;;;25.31;26.51;101612.72;9861051;29;20253;-82
2022/07/17 11:27:28;;;;;;;4.45;0.80;;;;;;;26.17;25.86;101614.72;9872342;30;20831;-81
2022/07/17 11:32:35;;;;;;;2.08;0.50;;;;;;;26.24;27.20;101609.94;9877694;30;20268;-82
2022/07/17 11:37:37;;;;;;;5.85;1.05;;;;;;;25.97;26.00;101606.09;9891290;29;20616;-82
2022/07/17 11:42:40;;;;;;;5.53;0.70;;;;;;;26.27;25.19;101602.63;9876646;29;20275;-84
2022/07/17 11:47:45;;;;;;;1.65;0.70;;;;;;;24.85;28.19;101602.13;9881559;29;20233;-83
2022/07/17 11:52:50;;;;;;;2.97;0.70;;;;;;;25.03;28.11;101606.28;9886491;29;20241;-82
2022/07/17 11:57:54;;;;;;;6.57;0.93;;;;;;;27.89;24.72;101586.56;9892590;29;20274;-83
2022/07/17 12:03:00;;;;;;;2.10;0.45;;;;;;;28.19;23.69;101584.50;9882227;29;20252;-82
2022/07/17 12:08:08;;;;;;;2.05;0.70;;;;;;;27.28;24.73;101587.69;9922751;29;20232;-83
2022/07/17 12:13:10;;;;;;;2.63;0.60;;;;;;;28.32;22.71;101575.59;9921140;29;20205;-85
2022/07/17 12:18:20;;;;;;;2.75;0.40;;;;;;;28.92;23.26;101570.50;9927377;29;20292;-84
2022/07/17 12:23:27;;;;;;;2.58;0.40;;;;;;;28.09;23.60;101576.59;9903590;29;20245;-83
2022/07/17 12:28:30;;;;;;;2.28;0.63;;;;;;;27.30;24.13;101570.06;9890873;29;20233;-83
2022/07/17 12:33:32;;;;;;;2.97;1.73;;;;;;;27.41;24.35;101569.03;9882847;29;20255;-84
2022/07/17 12:38:35;;;;;;;2.08;0.60;;;;;;;27.52;24.90;101561.38;9901733;29;20224;-85
2022/07/17 12:43:37;;;;;;;3.42;0.73;;;;;;;27.15;25.22;101552.63;9887184;29;20285;-82
2022/07/17 12:48:41;;;;;;;1.73;0.65;;;;;;;27.17;23.89;101555.13;9908941;29;20233;-84
2022/07/17 12:53:43;;;;;;;6.32;2.00;;;;;;;26.22;26.33;101565.63;9899593;29;20266;-82
2022/07/17 12:58:46;;;;;;;4.75;2.53;;;;;;;26.01;25.24;101561.16;9919371;29;20403;-82
2022/07/17 13:03:48;;;;;;;2.55;1.10;;;;;;;28.06;24.22;101542.81;9916365;29;20293;-82
2022/07/17 13:08:50;;;;;;;1.33;0.65;;;;;;;28.11;22.59;101536.75;9889540;30;20233;-82
2022/07/17 13:13:53;;;;;;;3.42;0.50;;;;;;;28.84;21.70;101545.72;9894748;29;20237;-82
2022/07/17 13:18:55;;;;;;;1.77;0.40;;;;;;;28.27;22.74;101544.34;9880235;29;20236;-82
2022/07/17 13:23:58;;;;;;;2.05;0.73;;;;;;;29.11;21.62;101537.72;9879672;29;20627;-81
2022/07/17 13:29:00;;;;;;;4.28;0.70;;;;;;;29.24;22.64;101524.66;9889342;30;20612;-82
2022/07/17 13:34:03;;;;;;;1.20;0.50;;;;;;;29.25;21.76;101532.09;9898552;30;20286;-83
2022/07/17 13:39:05;;;;;;;0.73;0.38;;;;;;;28.33;21.44;101531.22;9911277;29;20741;-81
2022/07/17 13:44:08;;;;;;;2.22;0.38;;;;;;;28.60;21.39;101538.50;9880734;29;20264;-83
2022/07/17 13:49:10;;;;;;;3.33;0.95;;;;;;;28.70;21.70;101525.44;9886679;29;20595;-82
2022/07/17 13:54:13;;;;;;;2.22;0.50;;;;;;;27.51;21.77;101527.31;9870674;29;20273;-81
2022/07/17 13:59:15;;;;;;;1.13;0.40;;;;;;;27.08;21.61;101520.13;9919196;29;20597;-82
2022/07/17 14:04:18;;;;;;;1.52;0.45;;;;;;;27.71;21.21;101519.38;9906704;29;20667;-81
2022/07/17 14:09:20;;;;;;;0.85;0.35;;;;;;;27.55;21.56;101516.72;9897802;30;20290;-82
2022/07/17 14:14:25;;;;;;;4.95;0.70;;;;;;;28.61;20.43;101511.38;9918234;29;20532;-82
2022/07/17 14:19:28;;;;;;;3.03;0.50;;;;;;;28.98;20.46;101504.69;9913160;29;20240;-81
2022/07/17 14:24:30;;;;;;;0.82;0.38;;;;;;;28.42;20.85;101508.72;9895393;29;20252;-80
2022/07/17 14:29:33;;;;;;;2.75;0.70;;;;;;;29.18;19.12;101497.44;9923890;29;20260;-81
2022/07/17 14:34:35;;;;;;;1.95;0.40;;;;;;;29.46;19.18;101491.06;9925123;29;20273;-80
2022/07/17 14:39:37;;;;;;;2.10;0.43;;;;;;;29.12;20.36;101481.75;9906336;29;20229;-80
2022/07/17 14:44:40;;;;;;;1.65;0.50;;;;;;;27.64;20.87;101487.69;9921139;29;20566;-81
2022/07/17 14:49:42;;;;;;;5.60;0.70;;;;;;;28.82;20.72;101471.25;9931448;29;20205;-81
2022/07/17 14:54:44;;;;;;;1.52;0.50;;;;;;;29.01;20.38;101464.41;9901899;29;20286;-81
2022/07/17 14:59:47;;;;;;;1.45;0.30;;;;;;;28.10;21.34;101468.97;9921892;29;20289;-81
2022/07/17 15:04:49;;;;;;;2.22;0.43;;;;;;;28.92;20.97;101461.06;9890624;29;20599;-81
2022/07/17 15:09:52;;;;;;;1.77;0.52;;;;;;;30.01;20.36;101462.84;9903379;29;20197;-82
2022/07/17 15:14:54;;;;;;;2.75;0.60;;;;;;;29.84;20.92;101460.75;9872271;30;20504;-81
2022/07/17 15:19:56;;;;;;;0.70;0.50;;;;;;;30.13;20.78;101445.16;9921551;29;20273;-81
2022/07/17 15:24:58;;;;;;;3.80;0.63;;;;;;;30.48;20.63;101432.03;9902247;29;20332;-81
2022/07/17 15:30:02;;;;;;;2.60;0.88;;;;;;;28.85;21.89;101444.56;9908135;29;20687;-81
2022/07/17 15:35:05;;;;;;;1.75;0.40;;;;;;;29.54;20.07;101440.84;9886277;30;20680;-81
2022/07/17 15:40:08;;;;;;;1.75;0.70;;;;;;;28.69;21.11;101435.38;9907740;29;20243;-80
2022/07/17 15:45:11;;;;;;;2.90;0.60;;;;;;;30.19;19.60;101431.97;9887195;30;20229;-81
2022/07/17 15:50:13;;;;;;;1.70;0.63;;;;;;;30.52;18.87;101427.06;9901261;29;20711;-80
2022/07/17 15:55:15;;;;;;;3.47;0.75;;;;;;;30.22;19.05;101425.38;9902504;29;20225;-80
2022/07/17 16:00:18;;;;;;;1.65;0.40;;;;;;;30.18;20.39;101418.78;9894924;29;20306;-80
2022/07/17 16:05:20;;;;;;;4.28;0.93;;;;;;;30.48;20.26;101408.94;9903524;29;20309;-81
2022/07/17 16:10:22;;;;;;;2.28;0.70;;;;;;;29.88;20.49;101426.97;9902959;29;20611;-80
2022/07/17 16:15:25;;;;;;;1.65;0.60;;;;;;;30.16;20.87;101415.47;9893404;29;20282;-81
2022/07/17 16:20:27;;;;;;;2.58;0.70;;;;;;;29.74;20.78;101418.28;9908995;29;20525;-81
2022/07/17 16:25:30;;;;;;;3.92;0.85;;;;;;;30.16;20.38;101420.44;9885022;29;20314;-81
2022/07/17 16:30:33;;;;;;;1.92;0.75;;;;;;;29.36;21.59;101409.06;9907206;29;20269;-81
2022/07/17 16:35:35;;;;;;;2.67;0.47;;;;;;;30.37;21.15;101403.13;9875529;29;20625;-80
2022/07/17 16:40:38;;;;;;;2.55;0.60;;;;;;;30.02;19.90;101401.03;9887133;29;20691;-81
2022/07/17 16:45:41;;;;;;;2.97;0.80;;;;;;;29.47;21.19;101392.63;9889693;29;20264;-82
2022/07/17 16:50:46;;;;;;;0.82;0.40;;;;;;;29.63;21.47;101381.56;9887684;29;20232;-83
2022/07/17 16:55:49;;;;;;;3.15;0.60;;;;;;;29.46;20.79;101382.34;9886986;29;20298;-81
2022/07/17 17:00:51;;;;;;;1.42;0.88;;;;;;;29.75;20.53;101383.28;9891382;29;20291;-81
2022/07/17 17:05:54;;;;;;;1.50;0.50;;;;;;;29.58;20.67;101372.50;9858913;30;20318;-81
2022/07/17 17:10:56;;;;;;;2.35;0.50;;;;;;;29.51;21.19;101367.53;9867602;29;20277;-81
2022/07/17 17:15:59;;;;;;;1.80;0.55;;;;;;;29.62;21.10;101368.38;9893867;29;20249;-81
2022/07/17 17:21:01;;;;;;;2.88;0.52;;;;;;;29.19;21.43;101375.25;9891007;29;20622;-80
2022/07/17 17:26:03;;;;;;;6.07;0.55;;;;;;;29.89;20.20;101360.22;9896506;30;20856;-81
2022/07/17 17:31:06;;;;;;;2.67;1.17;;;;;;;29.83;22.27;101355.28;9913608;29;20274;-81
2022/07/17 17:36:08;;;;;;;1.50;0.65;;;;;;;29.99;21.02;101347.88;9915018;29;20233;-81
2022/07/17 17:41:10;;;;;;;1.80;0.73;;;;;;;29.70;21.61;101348.25;9889433;29;20320;-82
2022/07/17 17:46:12;;;;;;;3.42;0.57;;;;;;;29.25;21.76;101341.94;9900937;29;20729;-81
2022/07/17 17:51:15;;;;;;;3.22;0.47;;;;;;;28.94;21.74;101344.22;9896701;29;20555;-79
2022/07/17 17:56:17;;;;;;;3.15;0.70;;;;;;;29.27;22.21;101336.59;9895794;29;20296;-80
2022/07/17 18:01:20;;;;;;;4.00;0.70;;;;;;;28.99;21.54;101333.56;9902983;29;20236;-80
2022/07/17 18:06:22;;;;;;;2.63;0.50;;;;;;;28.88;22.99;101328.59;9902473;29;20260;-80
2022/07/17 18:11:25;;;;;;;5.32;1.83;;;;;;;28.88;22.55;101328.59;9894888;29;20233;-80
2022/07/17 18:16:28;;;;;;;2.55;0.35;;;;;;;28.86;21.92;101336.78;9919420;29;20240;-81
2022/07/17 18:21:31;;;;;;;3.15;0.60;;;;;;;28.41;22.25;101352.53;9894148;29;20228;-79
2022/07/17 18:26:34;;;;;;;1.30;0.75;;;;;;;28.93;22.54;101353.31;9901797;29;20639;-81
2022/07/17 18:31:36;;;;;;;4.15;0.85;;;;;;;28.03;23.89;101350.94;9896717;29;20263;-80
2022/07/17 18:36:38;;;;;;;1.25;0.30;;;;;;;28.08;24.24;101359.22;9884710;30;20306;-80
2022/07/17 18:41:41;;;;;;;2.00;0.52;;;;;;;28.35;23.55;101367.69;9914427;29;20626;-80
2022/07/17 18:46:43;;;;;;;1.73;0.40;;;;;;;27.73;23.69;101381.88;9922442;29;20252;-81
2022/07/17 18:51:45;;;;;;;3.13;0.60;;;;;;;28.31;23.71;101384.06;9902678;29;20622;-81
2022/07/17 18:56:48;;;;;;;4.22;1.42;;;;;;;28.25;22.65;101393.09;9911100;29;20578;-81
2022/07/17 19:01:50;;;;;;;1.30;0.70;;;;;;;28.30;23.53;101382.41;9894138;30;20236;-82
2022/07/17 19:06:52;;;;;;;1.77;0.60;;;;;;;28.39;23.39;101374.28;9897945;30;20279;-81
2022/07/17 19:11:55;;;;;;;3.08;1.00;;;;;;;28.20;23.41;101361.81;9911527;29;20581;-80
2022/07/17 19:16:57;;;;;;;3.75;0.68;;;;;;;27.72;24.24;101374.47;9880340;30;20258;-81
2022/07/17 19:21:59;;;;;;;7.18;2.75;;;;;;;27.50;24.58;101377.09;9913235;29;20240;-80
2022/07/17 19:27:02;;;;;;;28.55;16.75;;;;;;;27.07;25.83;101372.84;9913923;29;20255;-80
2022/07/17 19:32:05;;;;;;;11.88;6.75;;;;;;;27.02;25.00;101375.22;9901520;29;20268;-79
2022/07/17 19:37:07;;;;;;;5.15;1.77;;;;;;;26.86;25.63;101384.81;9929348;29;20209;-80
2022/07/17 19:42:09;;;;;;;2.58;0.93;;;;;;;26.90;24.83;101389.78;9926055;29;20643;-81
2022/07/17 19:47:12;;;;;;;4.15;1.05;;;;;;;26.90;26.49;101401.28;9898278;29;20322;-80
2022/07/17 19:52:14;;;;;;;2.83;0.90;;;;;;;26.70;25.51;101404.28;9918195;29;20293;-81
2022/07/17 19:57:16;;;;;;;2.50;0.90;;;;;;;26.68;24.77;101403.00;9885379;30;20291;-82
2022/07/17 20:02:19;;;;;;;3.47;1.63;;;;;;;26.38;26.11;101409.50;9935085;29;20201;-81
2022/07/17 20:07:21;;;;;;;1.55;0.80;;;;;;;26.24;26.42;101416.97;9893886;30;20260;-80
2022/07/17 20:12:23;;;;;;;2.30;1.10;;;;;;;26.24;26.57;101419.84;9897247;29;20225;-80
2022/07/17 20:17:26;;;;;;;2.67;1.25;;;;;;;26.20;27.42;101418.97;9904870;29;20233;-84
2022/07/17 20:22:28;;;;;;;1.48;1.15;;;;;;;26.11;28.47;101420.06;9906335;29;20704;-80
2022/07/17 20:27:30;;;;;;;5.28;1.60;;;;;;;25.67;28.94;101413.06;9909510;29;20268;-80
2022/07/17 20:32:33;;;;;;;3.92;1.77;;;;;;;24.92;29.62;101419.16;9896121;29;20305;-82
2022/07/17 20:37:35;;;;;;;3.67;1.83;;;;;;;25.48;29.47;101416.75;9904332;29;20229;-83
2022/07/17 20:42:38;;;;;;;3.17;1.83;;;;;;;25.37;29.46;101422.25;9905784;29;20236;-82
2022/07/17 20:47:41;;;;;;;3.00;1.90;;;;;;;25.45;29.89;101414.63;9888142;30;20256;-85
2022/07/17 20:52:43;;;;;;;4.85;2.97;;;;;;;25.33;29.94;101418.47;9887424;30;20233;-81
2022/07/17 20:57:45;;;;;;;4.85;3.58;;;;;;;25.18;31.35;101419.38;9910301;29;20237;-82
2022/07/17 21:02:48;;;;;;;6.03;4.07;;;;;;;24.93;31.34;101415.09;9908053;29;20236;-80
2022/07/17 21:07:50;;;;;;;11.20;5.65;;;;;;;24.56;31.34;101414.63;9890418;29;20253;-80
2022/07/17 21:12:53;;;;;;;11.70;7.00;;;;;;;24.56;31.93;101426.91;9883502;29;20312;-80
2022/07/17 21:17:55;;;;;;;13.05;8.50;;;;;;;24.46;32.40;101415.19;9898659;29;20541;-80
2022/07/17 21:22:57;;;;;;;11.85;6.97;;;;;;;24.76;32.57;101404.94;9905289;29;20615;-82
2022/07/17 21:28:00;;;;;;;8.30;4.90;;;;;;;24.68;32.43;101406.78;9893057;29;20294;-81
2022/07/17 21:33:03;;;;;;;6.45;3.15;;;;;;;24.61;32.88;101406.63;9913941;29;20294;-81
2022/07/17 21:38:05;;;;;;;6.55;2.95;;;;;;;24.68;32.87;101411.66;9906914;29;20255;-81
2022/07/17 21:43:07;;;;;;;4.10;2.28;;;;;;;24.73;32.88;101408.53;9882649;30;20592;-82
2022/07/17 21:48:09;;;;;;;2.88;1.60;;;;;;;24.34;33.21;101408.38;9900834;29;20253;-82
2022/07/17 21:53:12;;;;;;;5.25;1.80;;;;;;;24.31;33.09;101408.28;9875195;30;20217;-82
2022/07/17 21:58:16;;;;;;;3.60;1.70;;;;;;;24.23;33.83;101406.44;9898755;30;20241;-82
2022/07/17 22:03:19;;;;;;;3.97;1.55;;;;;;;24.02;34.25;101398.97;9895856;29;20624;-83
2022/07/17 22:08:21;;;;;;;3.30;1.50;;;;;;;24.24;33.77;101390.97;9899692;30;20345;-80
2022/07/17 22:13:24;;;;;;;3.58;1.58;;;;;;;23.98;34.35;101395.19;9890421;30;20207;-81
2022/07/17 22:18:26;;;;;;;6.90;2.65;;;;;;;23.63;34.48;101391.31;9891581;30;20270;-82
2022/07/17 22:23:29;;;;;;;5.93;3.30;;;;;;;23.90;34.87;101381.88;9903934;29;20245;-81
2022/07/17 22:28:34;;;;;;;8.88;3.70;;;;;;;24.19;34.33;101379.78;9887785;29;20264;-82
2022/07/17 22:33:37;;;;;;;6.90;3.25;;;;;;;23.62;34.74;101381.91;9897399;29;20685;-82
2022/07/17 22:38:39;;;;;;;4.78;1.90;;;;;;;24.33;32.74;101378.13;9893336;30;20206;-82
2022/07/17 22:43:42;;;;;;;4.03;2.17;;;;;;;24.06;34.47;101373.34;9898498;30;21053;-80
2022/07/17 22:48:44;;;;;;;4.93;1.58;;;;;;;23.99;34.17;101379.72;9899124;30;20256;-82
2022/07/17 22:53:46;;;;;;;3.65;1.50;;;;;;;24.12;33.90;101376.75;9891898;30;20280;-82
2022/07/17 22:58:49;;;;;;;4.22;1.90;;;;;;;23.86;35.16;101368.72;9891150;30;20226;-81
2022/07/17 23:03:51;;;;;;;2.70;1.30;;;;;;;23.81;33.94;101368.97;9907896;29;20676;-83
2022/07/17 23:08:54;;;;;;;2.83;1.30;;;;;;;23.63;35.27;101365.63;9927210;29;20256;-82
2022/07/17 23:13:56;;;;;;;3.00;1.27;;;;;;;23.62;34.45;101358.25;9904172;30;20703;-82
2022/07/17 23:18:58;;;;;;;3.10;1.70;;;;;;;23.76;34.35;101355.78;9915842;29;20294;-82
2022/07/17 23:24:01;;;;;;;2.72;0.70;;;;;;;23.55;34.66;101353.19;9886592;30;20639;-82
2022/07/17 23:29:09;;;;;;;4.30;0.95;;;;;;;23.57;33.38;101365.06;9897968;29;20268;-82